地図

経路データ

SID SEASON NUMBER BASIN SUBBASIN NAME ISO_TIME NATURE LAT LON WMO_WIND WMO_PRES WMO_AGENCY TRACK_TYPE DIST2LAND LANDFALL IFLAG USA_AGENCY USA_ATCF_ID USA_LAT USA_LON USA_RECORD USA_STATUS USA_WIND USA_PRES USA_SSHS USA_R34_NE USA_R34_SE USA_R34_SW USA_R34_NW USA_R50_NE USA_R50_SE USA_R50_SW USA_R50_NW USA_R64_NE USA_R64_SE USA_R64_SW USA_R64_NW USA_POCI USA_ROCI USA_RMW USA_EYE TOKYO_LAT TOKYO_LON TOKYO_GRADE TOKYO_WIND TOKYO_PRES TOKYO_R50_DIR TOKYO_R50_LONG TOKYO_R50_SHORT TOKYO_R30_DIR TOKYO_R30_LONG TOKYO_R30_SHORT TOKYO_LAND CMA_LAT CMA_LON CMA_CAT CMA_WIND CMA_PRES HKO_LAT HKO_LON HKO_CAT HKO_WIND HKO_PRES NEWDELHI_LAT NEWDELHI_LON NEWDELHI_GRADE NEWDELHI_WIND NEWDELHI_PRES NEWDELHI_CI NEWDELHI_DP NEWDELHI_POCI REUNION_LAT REUNION_LON REUNION_TYPE REUNION_WIND REUNION_PRES REUNION_TNUM REUNION_CI REUNION_RMW REUNION_R34_NE REUNION_R34_SE REUNION_R34_SW REUNION_R34_NW REUNION_R50_NE REUNION_R50_SE REUNION_R50_SW REUNION_R50_NW REUNION_R64_NE REUNION_R64_SE REUNION_R64_SW REUNION_R64_NW BOM_LAT BOM_LON BOM_TYPE BOM_WIND BOM_PRES BOM_TNUM BOM_CI BOM_RMW BOM_R34_NE BOM_R34_SE BOM_R34_SW BOM_R34_NW BOM_R50_NE BOM_R50_SE BOM_R50_SW BOM_R50_NW BOM_R64_NE BOM_R64_SE BOM_R64_SW BOM_R64_NW BOM_ROCI BOM_POCI BOM_EYE BOM_POS_METHOD BOM_PRES_METHOD NADI_LAT NADI_LON NADI_CAT NADI_WIND NADI_PRES WELLINGTON_LAT WELLINGTON_LON WELLINGTON_WIND WELLINGTON_PRES DS824_LAT DS824_LON DS824_STAGE DS824_WIND DS824_PRES TD9636_LAT TD9636_LON TD9636_STAGE TD9636_WIND TD9636_PRES TD9635_LAT TD9635_LON TD9635_WIND TD9635_PRES TD9635_ROCI NEUMANN_LAT NEUMANN_LON NEUMANN_CLASS NEUMANN_WIND NEUMANN_PRES MLC_LAT MLC_LON MLC_CLASS MLC_WIND MLC_PRES USA_GUST BOM_GUST BOM_GUST_PER REUNION_GUST REUNION_GUST_PER USA_SEAHGT USA_SEARAD_NE USA_SEARAD_SE USA_SEARAD_SW USA_SEARAD_NW STORM_SPEED STORM_DIR
1946257N20089 1946 55 NI BB NOT_NAMED 1946-09-13 18:00:00 TS 19.6000 89.0000 main 223 212 O________O____ jtwc_io IO081946 19.6000 89.0000 -1 19.6000 89.0000 TC 3 349
1946257N20089 1946 55 NI BB NOT_NAMED 1946-09-13 21:00:00 TS 19.7400 88.9950 main 212 190 P________P____ IO081946 19.7400 88.9950 -1 19.7400 88.9950 TC 3 0
1946257N20089 1946 55 NI BB NOT_NAMED 1946-09-14 00:00:00 TS 19.9000 89.0000 main 190 167 O________O____ jtwc_io IO081946 19.9000 89.0000 -1 19.9000 89.0000 TC 25 4 3
1946257N20089 1946 55 NI BB NOT_NAMED 1946-09-14 03:00:00 TS 20.0933 89.0133 main 167 145 P________PO___ IO081946 20.0925 89.0149 -1 20.0925 89.0149 TC 25 20.1000 89.0000 1 4 0
1946257N20089 1946 55 NI BB NOT_NAMED 1946-09-14 06:00:00 TS 20.2963 88.9885 main 145 123 O________OP___ jtwc_io IO081946 20.3000 89.0000 -1 20.3000 89.0000 TC 25 20.2813 88.9423 1 4 345
1946257N20089 1946 55 NI BB NOT_NAMED 1946-09-14 09:00:00 TS 20.4918 88.8967 main 123 101 P________PP___ IO081946 20.5000 88.9001 -1 20.5000 88.9001 TC 25 20.4700 88.8876 1 4 337
1946257N20089 1946 55 NI BB NOT_NAMED 1946-09-14 12:00:00 TS 20.6913 88.8130 main 101 78 O________OP___ jtwc_io IO081946 20.7000 88.8000 -1 20.7000 88.8000 TC 25 20.6738 88.8392 1 4 347
1946257N20089 1946 55 NI BB NOT_NAMED 1946-09-14 15:00:00 TS 20.8900 88.7949 main 78 56 P________PO___ IO081946 20.8850 88.7924 -1 20.8850 88.7924 TC 25 20.9000 88.8000 1 4 359
1946257N20089 1946 55 NI BB NOT_NAMED 1946-09-14 18:00:00 TS 21.1173 88.7906 main 56 24 O________OP___ jtwc_io IO081946 21.1000 88.8000 -1 21.1000 88.8000 TC 25 21.1519 88.7718 1 5 355
1946257N20089 1946 55 NI BB NOT_NAMED 1946-09-14 21:00:00 TS 21.4100 88.7500 main 24 0 P________PP___ IO081946 21.4075 88.7501 -1 21.4075 88.7501 TC 25 21.4150 88.7499 1 6 352
1946257N20089 1946 55 NI BB NOT_NAMED 1946-09-15 00:00:00 TS 21.6902 88.7094 main 0 0 O________OP___ jtwc_io IO081946 21.7000 88.7000 -1 21.7000 88.7000 TC 25 21.6706 88.7281 1 5 355
1946257N20089 1946 55 NI BB NOT_NAMED 1946-09-15 03:00:00 TS 21.8817 88.7000 main 10 0 P________PO___ IO081946 21.8725 88.6999 -1 21.8725 88.6999 TC 25 21.9000 88.7000 1 3 0
1946257N20089 1946 55 NI BB NOT_NAMED 1946-09-15 06:00:00 TS 22.0263 88.6857 main 0 0 O________OP___ jtwc_io IO081946 22.0000 88.7000 -1 22.0000 88.7000 TC 25 22.0787 88.6572 1 3 348
1946257N20089 1946 55 NI BB NOT_NAMED 1946-09-15 09:00:00 TS 22.1717 88.6408 main 0 0 P________PP___ IO081946 22.1425 88.6575 -1 22.1425 88.6575 TC 25 22.2300 88.6075 1 3 342
1946257N20089 1946 55 NI BB NOT_NAMED 1946-09-15 12:00:00 TS 22.3221 88.5847 main 0 0 O________OP___ jtwc_io IO081946 22.3000 88.6000 -1 22.3000 88.6000 TC 25 22.3662 88.5540 1 3 343
1946257N20089 1946 55 NI BB NOT_NAMED 1946-09-15 15:00:00 TS 22.5000 88.5333 main 0 0 P________PO___ IO081946 22.5000 88.5500 -1 22.5000 88.5500 TC 25 22.5000 88.5000 1 4 346
1946257N20089 1946 55 NI BB NOT_NAMED 1946-09-15 18:00:00 TS 22.6847 88.4874 main 0 0 O________OP___ jtwc_io IO081946 22.7000 88.5000 -1 22.7000 88.5000 TC 25 22.6540 88.4621 1 4 348
1946257N20089 1946 55 NI BB NOT_NAMED 1946-09-15 21:00:00 TS 22.8458 88.4458 main 0 0 P________PP___ IO081946 22.8650 88.4575 -1 22.8650 88.4575 TC 25 22.8074 88.4223 1 3 343
1946257N20089 1946 55 NI BB NOT_NAMED 1946-09-16 00:00:00 TS 22.9857 88.3905 main 0 0 O________OP___ jtwc_io IO081946 23.0000 88.4000 -1 23.0000 88.4000 TC 25 22.9571 88.3714 1 3 334
1946257N20089 1946 55 NI BB NOT_NAMED 1946-09-16 03:00:00 TS 23.1000 88.3100 main 0 0 P________PO___ IO081946 23.1000 88.3149 -1 23.1000 88.3149 TC 25 23.1000 88.3000 1 3 322
1946257N20089 1946 55 NI BB NOT_NAMED 1946-09-16 06:00:00 TS 23.2107 88.1989 main 0 0 O________OP___ jtwc_io IO081946 23.2000 88.2000 -1 23.2000 88.2000 TC 25 23.2322 88.1966 1 3 317
1946257N20089 1946 55 NI BB NOT_NAMED 1946-09-16 09:00:00 TS 23.3525 88.0575 main 0 0 P________PP___ IO081946 23.3500 88.0501 -1 23.3500 88.0501 TC 25 23.3575 88.0725 1 4 317
1946257N20089 1946 55 NI BB NOT_NAMED 1946-09-16 12:00:00 TS 23.4930 87.9124 main 0 0 O________OP___ jtwc_io IO081946 23.5000 87.9000 -1 23.5000 87.9000 TC 25 23.4791 87.9372 1 3 316
1946257N20089 1946 55 NI BB NOT_NAMED 1946-09-16 15:00:00 TS 23.6000 87.7999 main 0 0 P________PO___ IO081946 23.6000 87.7999 -1 23.6000 87.7999 TC 25 23.6000 87.8000 1 3 318
1946257N20089 1946 55 NI BB NOT_NAMED 1946-09-16 18:00:00 TS 23.7083 87.6997 main 0 0 O________OP___ jtwc_io IO081946 23.7000 87.7000 -1 23.7000 87.7000 TC 25 23.7248 87.6991 1 3 320
1946257N20089 1946 55 NI BB NOT_NAMED 1946-09-16 21:00:00 TS 23.8499 87.5699 main 0 0 P________PP___ IO081946 23.8500 87.5575 -1 23.8500 87.5575 TC 25 23.8496 87.5946 1 4 318
1946257N20089 1946 55 NI BB NOT_NAMED 1946-09-17 00:00:00 TS 23.9916 87.4226 main 0 0 O________OP___ jtwc_io IO081946 24.0000 87.4000 -1 24.0000 87.4000 TC 25 23.9747 87.4678 1 4 314
1946257N20089 1946 55 NI BB NOT_NAMED 1946-09-17 03:00:00 TS 24.0999 87.2816 main 0 0 P________PO___ IO081946 24.0999 87.2724 -1 24.0999 87.2724 TC 25 24.1000 87.3000 1 4 306
1946257N20089 1946 55 NI BB NOT_NAMED 1946-09-17 06:00:00 TS 24.2138 87.0922 main 0 0 O________OP___ jtwc_io IO081946 24.2000 87.1000 -1 24.2000 87.1000 TC 25 24.2413 87.0765 1 5 302
1946257N20089 1946 55 NI BB NOT_NAMED 1946-09-17 09:00:00 TS 24.3600 86.8185 main 0 0 P________PP___ IO081946 24.3501 86.8226 -1 24.3501 86.8226 TC 25 24.3800 86.8104 1 6 298
1946257N20089 1946 55 NI BB NOT_NAMED 1946-09-17 12:00:00 TS 24.5012 86.5047 main 0 0 O________OP___ jtwc_io IO081946 24.5000 86.5000 -1 24.5000 86.5000 TC 25 24.5037 86.5140 1 6 295
1946257N20089 1946 55 NI BB NOT_NAMED 1946-09-17 15:00:00 TS 24.6149 86.2050 main 0 0 P________PO___ IO081946 24.6224 86.2075 -1 24.6224 86.2075 TC 25 24.6000 86.2000 1 6 288
1946257N20089 1946 55 NI BB NOT_NAMED 1946-09-17 18:00:00 TS 24.6841 85.8916 main 0 0 O________OP___ jtwc_io IO081946 24.7000 85.9000 -1 24.7000 85.9000 TC 25 24.6602 85.8791 1 6 279
1946257N20089 1946 55 NI BB NOT_NAMED 1946-09-17 21:00:00 TS 24.7060 85.5577 main 0 0 P________PP___ IO081946 24.7177 85.5599 -1 24.7177 85.5599 TC 25 24.6905 85.5546 1 6 272
1946257N20089 1946 55 NI BB NOT_NAMED 1946-09-18 00:00:00 TS 24.7002 85.2139 main 0 0 O________OP___ jtwc_io IO081946 24.7000 85.2000 -1 24.7000 85.2000 TC 25 24.7005 85.2279 1 6 269
1946257N20089 1946 55 NI BB NOT_NAMED 1946-09-18 03:00:00 NR 24.7000 84.9000 main 0 __________O___ IO081946 -1 TC 24.7000 84.9000 1 6 270

IBTrACS Databaseについて

本データベースは、米国NOAAが公開する1842年以降の世界の熱帯低気圧のベストトラックデータアーカイブInternational Best Track Archive for Climate Stewardship (IBTrACS)を、ウェブで閲覧しやすい形式に変換したものです。

最終更新日:2021-12-06